Chronik & Geschichte

Boeing Stearman am Flugplatz Konstanz

Mit seiner 107-jährigen Geschichte ist Konstanz der älteste Verkehrslandeplatz Deutschlands. Lesen Sie unsere Festschrift zum 100-jährigen Platzjubiläum oder entdecken Sie die ausführliche Flugplatzchronik auf der Website der Initiative PRO Flugplatz Konstanz.

Live am Platz

Die Bilder unserer Webcams werden alle 5 Minuten aktualisiert.

Sonnenaufgang:

05:20 UTC / 07:20 Lokal

Sonnenuntergang:

17:06 UTC / 19:06 Lokal

METAR (30.09.2020 18:50 UTC):

EDNY 301850Z AUTO 04003KT 360V060 9999 // NCD 13/11 Q1012
VFR

TAF (30.09.2020 17:00 UTC):

TAF EDNY 301700Z 3018/0118 VRB03KT CAVOK BECMG 3022/0101 3000 BCFG BECMG 0101/0103 2000 BKN005 PROB30 TEMPO 0103/0107 0600 FG BKN003 BECMG 0107/0110 9999 SCT012 TEMPO 0112/0116 23005KT

Alle Angaben unverbindlich und ohne Gewähr. Zeiten genähert.

Für den Verkehrslandeplatz Konstanz werden keine offiziellen Wetterinformationen ausgegeben. Daher werden zur Orientierung Daten des nahegelegenen Flughafens Friedrichshafen dargestellt.